Baltimore, Maryland
Traffic Map
Current Weather Conditions
Baltimore, Maryland
Clear
Clear
53°
Feels Like: 53°
Wind Chill: 53° Ceiling: Unl
Heat Index: 53° Visibility: 10mi
Dew Point: 51° Wind: 0mph
Humidity: 93% Direction: ° ()
Pressure: 30.03in Gusts: 0mph
Raw Report DataKBWI 170654Z 00000KT 10SM CLR 12/11 A3003 RMK AO2 SLP169 T01170106
Traffic Incident Summary
Active as of:
Severity:
Category:
InformationThere was an issue retrieving the traffic information for this location. Please try a different location or try again shortly.
Advertisements
Track Severe Weather on mobile